createdAt,value
2019-02-28T00:01:23.311Z,19.83
2019-02-28T00:03:58.062Z,21.60
2019-02-28T00:06:30.941Z,22.40
2019-02-28T00:09:02.527Z,20.93
2019-02-28T00:11:36.083Z,22.70
2019-02-28T00:14:08.971Z,20.13
2019-02-28T00:16:45.640Z,18.53
2019-02-28T00:19:17.202Z,18.27
2019-02-28T00:21:54.630Z,20.60
2019-02-28T00:24:30.026Z,22.60
2019-02-28T00:27:00.641Z,21.07
2019-02-28T00:29:34.430Z,18.27
2019-02-28T00:32:07.757Z,22.83
2019-02-28T00:34:41.566Z,22.00
2019-02-28T00:37:16.297Z,23.73
2019-02-28T00:39:47.891Z,21.50
2019-02-28T00:42:25.562Z,20.60
2019-02-28T00:45:02.365Z,20.23
2019-02-28T00:47:33.248Z,23.93
2019-02-28T00:50:07.567Z,20.80
2019-02-28T00:52:38.221Z,20.67
2019-02-28T00:55:15.513Z,19.60
2019-02-28T00:57:51.057Z,19.40
2019-02-28T01:00:25.352Z,16.67
2019-02-28T01:03:03.273Z,16.17
2019-02-28T01:05:36.650Z,19.37
2019-02-28T01:08:09.475Z,18.70
2019-02-28T01:10:51.149Z,18.40
2019-02-28T01:13:27.305Z,19.73
2019-02-28T01:15:57.642Z,18.67
2019-02-28T01:18:29.207Z,15.77
2019-02-28T01:21:07.590Z,19.10
2019-02-28T01:23:40.584Z,23.10
2019-02-28T01:26:15.880Z,20.77
2019-02-28T01:28:47.475Z,20.60
2019-02-28T01:31:19.002Z,17.50
2019-02-28T01:33:56.068Z,20.27
2019-02-28T01:36:26.812Z,19.23
2019-02-28T01:39:09.007Z,19.20
2019-02-28T01:41:45.275Z,19.67
2019-02-28T01:44:16.340Z,19.27
2019-02-28T01:46:52.085Z,20.10
2019-02-28T01:49:26.024Z,14.30
2019-02-28T01:51:56.896Z,18.93
2019-02-28T01:54:28.514Z,18.33
2019-02-28T01:57:00.028Z,19.83
2019-02-28T01:59:33.854Z,17.63
2019-02-28T02:02:08.338Z,19.60
2019-02-28T02:04:39.880Z,20.20
2019-02-28T02:07:14.427Z,14.80
2019-02-28T02:09:46.918Z,17.43
2019-02-28T02:12:18.642Z,17.33
2019-02-28T02:14:50.177Z,18.43
2019-02-28T02:17:25.019Z,16.33
2019-02-28T02:19:56.841Z,20.48
2019-02-28T02:22:30.745Z,18.87
2019-02-28T02:25:03.158Z,14.17
2019-02-28T02:27:36.952Z,16.00
2019-02-28T02:30:17.111Z,22.67
2019-02-28T02:32:48.645Z,20.63
2019-02-28T02:35:23.007Z,16.53
2019-02-28T02:37:54.723Z,17.40
2019-02-28T02:40:28.632Z,14.57
2019-02-28T02:43:00.481Z,20.00
2019-02-28T02:45:41.947Z,18.25
2019-02-28T02:48:08.683Z,19.32
2019-02-28T02:50:43.168Z,18.13
2019-02-28T02:53:16.656Z,21.00
2019-02-28T02:55:49.478Z,16.30
2019-02-28T02:58:26.887Z,16.97
2019-02-28T03:00:54.298Z,20.20
2019-02-28T03:03:28.608Z,17.57
2019-02-28T03:06:01.258Z,17.10
2019-02-28T03:08:36.305Z,15.40
2019-02-28T03:11:06.192Z,17.07
2019-02-28T03:13:43.686Z,16.13
2019-02-28T03:16:20.439Z,19.95
2019-02-28T03:18:57.997Z,17.75
2019-02-28T03:21:30.099Z,17.17
2019-02-28T03:24:03.493Z,18.27
2019-02-28T03:26:41.602Z,19.23
2019-02-28T03:29:10.759Z,17.10
2019-02-28T03:31:55.100Z,19.05
2019-02-28T03:34:25.103Z,19.20
2019-02-28T03:37:00.812Z,19.12
2019-02-28T03:39:32.648Z,17.52
2019-02-28T03:42:04.228Z,15.60
2019-02-28T03:44:36.054Z,19.90
2019-02-28T03:47:07.900Z,19.05
2019-02-28T03:49:39.732Z,20.45
2019-02-28T03:52:11.287Z,21.40
2019-02-28T03:54:43.111Z,16.77
2019-02-28T03:57:14.958Z,17.20
2019-02-28T03:59:46.514Z,17.30
2019-02-28T04:02:22.244Z,17.67
2019-02-28T04:04:52.483Z,21.20
2019-02-28T04:07:24.346Z,17.15
2019-02-28T04:09:56.174Z,18.48
2019-02-28T04:12:28.007Z,18.05
2019-02-28T04:14:59.956Z,17.55
2019-02-28T04:17:31.783Z,21.55
2019-02-28T04:20:07.494Z,17.60
2019-02-28T04:22:39.347Z,22.27
2019-02-28T04:25:11.242Z,16.77
2019-02-28T04:27:43.118Z,20.17
2019-02-28T04:30:17.439Z,18.55
2019-02-28T04:32:49.003Z,15.67
2019-02-28T04:35:24.341Z,17.10
2019-02-28T04:37:54.390Z,19.37
2019-02-28T04:40:27.017Z,15.98
2019-02-28T04:43:01.408Z,16.35
2019-02-28T04:45:33.356Z,22.40
2019-02-28T04:48:05.428Z,16.40
2019-02-28T04:50:37.283Z,18.55
2019-02-28T04:53:10.100Z,18.82
2019-02-28T04:55:41.961Z,17.17
2019-02-28T04:58:13.808Z,20.08
2019-02-28T05:00:45.641Z,17.55
2019-02-28T05:03:17.502Z,15.32
2019-02-28T05:05:50.955Z,17.12
2019-02-28T05:08:24.552Z,17.30
2019-02-28T05:10:56.837Z,21.52
2019-02-28T05:13:28.717Z,19.62
2019-02-28T05:16:01.997Z,19.85
2019-02-28T05:18:34.931Z,18.27
2019-02-28T05:21:06.761Z,17.30
2019-02-28T05:23:38.597Z,16.35
2019-02-28T05:26:10.184Z,17.60
2019-02-28T05:28:42.033Z,20.62
2019-02-28T05:31:13.853Z,14.93
2019-02-28T05:33:45.680Z,16.73
2019-02-28T05:36:17.547Z,17.10
2019-02-28T05:38:49.400Z,22.93
2019-02-28T05:41:21.254Z,23.92
2019-02-28T05:43:53.083Z,18.77
2019-02-28T05:46:24.971Z,18.45
2019-02-28T05:48:56.865Z,17.25
2019-02-28T05:51:28.715Z,20.23
2019-02-28T05:54:00.559Z,15.32
2019-02-28T05:56:33.144Z,20.37
2019-02-28T05:59:05.989Z,19.25
2019-02-28T06:01:37.866Z,21.33
2019-02-28T06:04:09.799Z,26.70
2019-02-28T06:06:41.771Z,21.57
2019-02-28T06:09:14.553Z,19.90
2019-02-28T06:11:46.766Z,19.90
2019-02-28T06:14:18.592Z,25.70
2019-02-28T06:16:50.448Z,18.80
2019-02-28T06:19:22.261Z,19.02
2019-02-28T06:21:56.441Z,15.63
2019-02-28T06:24:27.632Z,19.67
2019-02-28T06:27:03.738Z,17.55
2019-02-28T06:29:36.786Z,18.77
2019-02-28T06:32:08.154Z,17.57
2019-02-28T06:34:42.224Z,25.68
2019-02-28T06:37:15.404Z,22.70
2019-02-28T06:39:47.237Z,23.92
2019-02-28T06:42:19.144Z,19.20
2019-02-28T06:44:50.991Z,23.52
2019-02-28T06:47:22.833Z,27.55
2019-02-28T06:49:54.667Z,19.75
2019-02-28T06:52:29.008Z,23.98
2019-02-28T06:55:00.919Z,17.20
2019-02-28T06:57:33.115Z,19.52
2019-02-28T07:00:10.388Z,19.02
2019-02-28T07:02:44.501Z,17.20
2019-02-28T07:05:24.273Z,18.52
2019-02-28T07:07:54.785Z,18.10
2019-02-28T07:10:32.546Z,16.53
2019-02-28T07:13:05.810Z,19.87
2019-02-28T07:15:37.688Z,19.48
2019-02-28T07:18:12.460Z,19.83
2019-02-28T07:20:44.050Z,18.30
2019-02-28T07:23:17.472Z,26.97
2019-02-28T07:25:52.414Z,21.93
2019-02-28T07:28:24.098Z,21.67
2019-02-28T07:30:58.021Z,20.10
2019-02-28T07:33:32.753Z,20.27
2019-02-28T07:36:09.655Z,24.00
2019-02-28T07:38:44.426Z,19.93
2019-02-28T07:41:20.321Z,23.40
2019-02-28T07:43:53.872Z,20.47
2019-02-28T07:46:25.431Z,18.47
2019-02-28T07:49:00.922Z,19.43
2019-02-28T07:51:33.219Z,20.00
2019-02-28T07:54:06.356Z,26.83
2019-02-28T07:56:43.145Z,29.33
2019-02-28T07:59:20.039Z,26.33
2019-02-28T08:01:51.651Z,18.13
2019-02-28T08:04:23.217Z,26.60
2019-02-28T08:06:57.933Z,26.37
2019-02-28T08:09:31.529Z,17.57
2019-02-28T08:12:03.100Z,18.00
2019-02-28T08:14:37.714Z,17.90
2019-02-28T08:17:09.971Z,19.93
2019-02-28T08:19:41.650Z,24.07
2019-02-28T08:22:16.042Z,17.83
2019-02-28T08:24:49.827Z,20.30
2019-02-28T08:27:25.445Z,22.17
2019-02-28T08:29:57.897Z,19.00
2019-02-28T08:32:29.509Z,16.40
2019-02-28T08:35:02.743Z,16.47
2019-02-28T08:37:37.901Z,16.10
2019-02-28T08:40:19.361Z,20.67
2019-02-28T08:42:51.017Z,17.97
2019-02-28T08:45:23.655Z,16.57
2019-02-28T08:47:56.993Z,16.00
2019-02-28T08:50:31.912Z,16.63
2019-02-28T08:53:03.598Z,18.73
2019-02-28T08:55:39.470Z,16.10
2019-02-28T08:58:13.141Z,18.77
2019-02-28T09:00:44.746Z,16.83
2019-02-28T09:03:17.374Z,16.83
2019-02-28T09:05:54.705Z,21.80
2019-02-28T09:08:29.071Z,20.60
2019-02-28T09:11:00.678Z,19.73
2019-02-28T09:13:34.611Z,20.93
2019-02-28T09:16:06.426Z,20.03
2019-02-28T09:18:40.782Z,21.00
2019-02-28T09:21:15.389Z,22.80
2019-02-28T09:23:51.917Z,24.33
2019-02-28T09:26:28.180Z,19.47
2019-02-28T09:29:02.500Z,21.75
2019-02-28T09:31:38.683Z,21.17
2019-02-28T09:34:09.298Z,21.00
2019-02-28T09:36:44.096Z,23.70
2019-02-28T09:39:16.304Z,22.60
2019-02-28T09:41:48.953Z,26.10
2019-02-28T09:44:21.837Z,23.60
2019-02-28T09:46:55.705Z,26.97
2019-02-28T09:49:30.107Z,32.63
2019-02-28T09:52:03.274Z,21.63
2019-02-28T09:54:34.936Z,20.23
2019-02-28T09:57:06.775Z,23.10
2019-02-28T09:59:42.246Z,24.43
2019-02-28T10:02:13.844Z,39.97
2019-02-28T10:04:47.171Z,24.63
2019-02-28T10:07:23.367Z,30.90
2019-02-28T10:09:56.768Z,25.57
2019-02-28T10:12:28.346Z,26.63
2019-02-28T10:15:00.635Z,23.90
2019-02-28T10:17:33.597Z,25.43
2019-02-28T10:20:08.022Z,28.70
2019-02-28T10:22:39.605Z,29.63
2019-02-28T10:25:12.700Z,27.97
2019-02-28T10:27:46.771Z,30.13
2019-02-28T10:30:31.285Z,29.77
2019-02-28T10:32:59.791Z,31.20
2019-02-28T10:35:33.488Z,27.33
2019-02-28T10:38:04.655Z,30.07
2019-02-28T10:40:38.755Z,32.00
2019-02-28T10:43:15.369Z,30.23
2019-02-28T10:45:46.453Z,33.10
2019-02-28T10:48:21.011Z,30.53
2019-02-28T10:50:52.291Z,29.43
2019-02-28T10:53:23.855Z,32.00
2019-02-28T10:55:57.950Z,28.40
2019-02-28T10:58:30.398Z,30.20
2019-02-28T11:01:07.714Z,33.70
2019-02-28T11:03:35.289Z,27.83
2019-02-28T11:06:06.876Z,33.47
2019-02-28T11:08:38.438Z,29.93
2019-02-28T11:11:10.521Z,30.17
2019-02-28T11:13:42.860Z,29.20
2019-02-28T11:16:14.464Z,26.93
2019-02-28T11:18:46.107Z,28.33
2019-02-28T11:21:17.862Z,25.87
2019-02-28T11:23:50.256Z,24.80
2019-02-28T11:26:21.878Z,28.00
2019-02-28T11:28:53.626Z,28.60
2019-02-28T11:31:25.809Z,24.23
2019-02-28T11:33:57.594Z,26.90
2019-02-28T11:36:30.466Z,29.33
2019-02-28T11:39:05.842Z,39.43
2019-02-28T11:41:38.770Z,25.70
2019-02-28T11:44:11.985Z,25.30
2019-02-28T11:46:44.510Z,23.43
2019-02-28T11:49:16.094Z,26.57
2019-02-28T11:51:49.459Z,23.57
2019-02-28T11:54:22.448Z,25.73
2019-02-28T11:56:54.031Z,23.87
2019-02-28T11:59:25.600Z,23.83
2019-02-28T12:01:59.925Z,24.47
2019-02-28T12:04:33.101Z,25.67
2019-02-28T12:07:06.389Z,23.20
2019-02-28T12:09:41.876Z,21.60
2019-02-28T12:12:13.450Z,27.67
2019-02-28T12:14:45.154Z,28.30
2019-02-28T12:17:19.768Z,22.37
2019-02-28T12:19:51.400Z,21.07
2019-02-28T12:22:24.327Z,26.10
2019-02-28T12:24:58.586Z,26.63
2019-02-28T12:27:30.385Z,25.17
2019-02-28T12:30:01.946Z,25.80
2019-02-28T12:32:33.610Z,23.23
2019-02-28T12:35:08.521Z,23.60
2019-02-28T12:37:40.137Z,23.07
2019-02-28T12:40:21.452Z,24.30
2019-02-28T12:42:55.125Z,25.50
2019-02-28T12:45:30.487Z,25.10
2019-02-28T12:48:04.563Z,24.97
2019-02-28T12:50:36.126Z,23.50
2019-02-28T12:53:07.760Z,22.73
2019-02-28T12:55:40.920Z,23.83
2019-02-28T12:58:13.793Z,24.63
2019-02-28T13:00:45.847Z,23.27
2019-02-28T13:03:20.059Z,27.10
2019-02-28T13:05:50.823Z,24.70
2019-02-28T13:08:25.484Z,26.68
2019-02-28T13:11:03.134Z,27.13
2019-02-28T13:13:35.358Z,22.37
2019-02-28T13:16:09.245Z,24.07
2019-02-28T13:18:43.587Z,19.43
2019-02-28T13:21:15.234Z,23.90
2019-02-28T13:23:46.803Z,23.17
2019-02-28T13:26:18.386Z,27.60
2019-02-28T13:28:49.969Z,26.23
2019-02-28T13:31:27.064Z,22.33
2019-02-28T13:34:08.599Z,23.10
2019-02-28T13:36:40.225Z,22.10
2019-02-28T13:39:11.907Z,22.20
2019-02-28T13:41:43.497Z,20.60
2019-02-28T13:44:15.093Z,22.70
2019-02-28T13:46:46.662Z,25.40
2019-02-28T13:49:19.904Z,23.30
2019-02-28T13:51:54.593Z,26.13
2019-02-28T13:54:33.995Z,24.90
2019-02-28T13:57:09.687Z,26.50
2019-02-28T13:59:38.949Z,22.33
2019-02-28T14:02:13.613Z,26.07
2019-02-28T14:04:46.241Z,27.10
2019-02-28T14:07:21.638Z,25.20
2019-02-28T14:09:58.147Z,21.63
2019-02-28T14:12:28.832Z,24.33
2019-02-28T14:15:15.438Z,22.53
2019-02-28T14:17:47.484Z,23.07
2019-02-28T14:20:20.585Z,26.63
2019-02-28T14:22:58.417Z,22.53
2019-02-28T14:25:32.278Z,26.33
2019-02-28T14:28:04.171Z,25.20
2019-02-28T14:30:35.791Z,21.30
2019-02-28T14:33:07.593Z,21.10
2019-02-28T14:35:41.189Z,23.20
2019-02-28T14:38:15.482Z,23.50
2019-02-28T14:40:52.783Z,20.40
2019-02-28T14:43:28.514Z,22.50
2019-02-28T14:46:10.187Z,25.87
2019-02-28T14:48:44.472Z,21.53
2019-02-28T14:51:16.061Z,23.33
2019-02-28T14:53:50.103Z,22.67
2019-02-28T14:56:26.635Z,23.73
2019-02-28T14:58:58.327Z,21.37
2019-02-28T15:01:29.920Z,26.03
2019-02-28T15:04:02.769Z,22.40
2019-02-28T15:06:37.065Z,22.83
2019-02-28T15:09:19.254Z,20.10
2019-02-28T15:11:52.333Z,20.30
2019-02-28T15:14:28.901Z,20.43
2019-02-28T15:17:02.037Z,22.33
2019-02-28T15:19:33.791Z,22.90
2019-02-28T15:22:05.519Z,20.60
2019-02-28T15:24:40.536Z,23.93
2019-02-28T15:27:14.776Z,21.50
2019-02-28T15:29:46.372Z,19.70
2019-02-28T15:32:20.748Z,20.97
2019-02-28T15:34:53.619Z,19.87
2019-02-28T15:37:25.352Z,19.77
2019-02-28T15:39:56.943Z,18.50
2019-02-28T15:42:28.567Z,22.40
2019-02-28T15:45:03.925Z,20.17
2019-02-28T15:47:35.479Z,18.75
2019-02-28T15:50:08.608Z,19.67
2019-02-28T15:52:40.186Z,19.30
2019-02-28T15:55:13.094Z,26.70
2019-02-28T15:57:45.138Z,22.47
2019-02-28T16:00:22.075Z,21.20
2019-02-28T16:02:59.389Z,24.10
2019-02-28T16:05:31.005Z,24.30
2019-02-28T16:08:08.808Z,26.37
2019-02-28T16:10:36.122Z,26.27
2019-02-28T16:13:08.739Z,23.70
2019-02-28T16:15:46.353Z,25.63
2019-02-28T16:18:17.079Z,26.40
2019-02-28T16:20:50.916Z,27.33
2019-02-28T16:23:27.567Z,26.13
2019-02-28T16:26:00.258Z,26.93
2019-02-28T16:28:32.900Z,29.00
2019-02-28T16:31:06.415Z,29.80
2019-02-28T16:33:42.100Z,27.80
2019-02-28T16:36:15.930Z,26.27
2019-02-28T16:38:50.066Z,27.77
2019-02-28T16:41:23.506Z,27.37
2019-02-28T16:43:55.535Z,28.93
2019-02-28T16:46:30.161Z,25.73
2019-02-28T16:49:07.413Z,23.70
2019-02-28T16:51:39.560Z,26.87
2019-02-28T16:54:13.355Z,26.70
2019-02-28T16:56:46.602Z,23.87
2019-02-28T16:59:19.264Z,28.03
2019-02-28T17:01:54.768Z,26.30
2019-02-28T17:04:25.293Z,26.27
2019-02-28T17:06:59.890Z,23.47
2019-02-28T17:09:51.802Z,36.87
2019-02-28T17:12:54.124Z,21.77
2019-02-28T17:15:42.913Z,24.03
2019-02-28T17:18:21.581Z,25.10
2019-02-28T17:21:01.233Z,23.30
2019-02-28T17:23:33.686Z,21.13
2019-02-28T17:26:11.692Z,21.67
2019-02-28T17:28:49.749Z,24.00
2019-02-28T17:31:55.323Z,22.20
2019-02-28T17:34:26.896Z,23.83
2019-02-28T17:37:01.564Z,27.03
2019-02-28T17:39:34.767Z,20.33
2019-02-28T17:42:14.805Z,21.00
2019-02-28T17:45:25.961Z,23.93
2019-02-28T17:48:40.260Z,21.03
2019-02-28T17:51:39.797Z,21.10
2019-02-28T17:55:24.020Z,22.63
2019-02-28T17:58:38.816Z,21.57
2019-02-28T18:02:01.543Z,20.90
2019-02-28T18:05:38.765Z,24.43
2019-02-28T18:08:37.766Z,25.00
2019-02-28T18:12:31.458Z,22.87
2019-02-28T18:15:47.359Z,22.27
2019-02-28T18:18:59.794Z,21.63
2019-02-28T18:22:25.853Z,22.50
2019-02-28T18:25:41.501Z,20.90
2019-02-28T18:28:58.029Z,23.17
2019-02-28T18:31:30.783Z,21.27
2019-02-28T18:34:10.072Z,22.13
2019-02-28T18:36:43.548Z,19.57
2019-02-28T18:39:16.613Z,21.53
2019-02-28T18:41:52.818Z,18.30
2019-02-28T18:44:24.482Z,18.93
2019-02-28T18:46:57.178Z,20.97
2019-02-28T18:49:32.110Z,20.17
2019-02-28T18:52:03.730Z,23.03
2019-02-28T18:54:35.405Z,19.03
2019-02-28T18:57:07.027Z,19.57
2019-02-28T18:59:38.633Z,18.90
2019-02-28T19:02:10.277Z,17.03
2019-02-28T19:04:41.927Z,19.83
2019-02-28T19:07:14.703Z,16.47
2019-02-28T19:09:50.334Z,17.63
2019-02-28T19:12:23.903Z,18.23
2019-02-28T19:14:56.677Z,14.00
2019-02-28T19:17:28.354Z,18.47
2019-02-28T19:20:01.044Z,14.40
2019-02-28T19:22:32.895Z,11.77
2019-02-28T19:25:04.845Z,17.93
2019-02-28T19:27:40.144Z,18.00
2019-02-28T19:30:14.029Z,16.53
2019-02-28T19:32:47.281Z,12.83
2019-02-28T19:35:19.001Z,17.03
2019-02-28T19:37:50.570Z,13.20
2019-02-28T19:40:22.187Z,11.80
2019-02-28T19:42:53.746Z,13.83
2019-02-28T19:45:25.612Z,13.03
2019-02-28T19:47:57.170Z,12.23
2019-02-28T19:50:28.802Z,12.13
2019-02-28T19:53:00.438Z,13.20
2019-02-28T19:55:32.035Z,11.40
2019-02-28T19:58:03.719Z,14.53
2019-02-28T20:00:35.325Z,11.70
2019-02-28T20:03:06.913Z,13.10
2019-02-28T20:05:38.749Z,13.47
2019-02-28T20:08:10.338Z,12.07
2019-02-28T20:10:41.908Z,14.23
2019-02-28T20:13:13.503Z,12.50
2019-02-28T20:15:45.165Z,9.60
2019-02-28T20:18:17.206Z,11.20
2019-02-28T20:20:48.814Z,9.50
2019-02-28T20:23:20.399Z,12.27
2019-02-28T20:25:52.098Z,10.60
2019-02-28T20:28:23.769Z,10.03
2019-02-28T20:30:55.463Z,12.47
2019-02-28T20:33:27.271Z,10.73
2019-02-28T20:35:58.934Z,11.30
2019-02-28T20:38:30.516Z,11.03
2019-02-28T20:41:02.131Z,11.90
2019-02-28T20:43:33.834Z,10.03
2019-02-28T20:46:05.516Z,9.30
2019-02-28T20:48:37.297Z,9.20
2019-02-28T20:51:09.056Z,14.63
2019-02-28T20:53:40.976Z,11.33
2019-02-28T20:56:12.680Z,9.37
2019-02-28T20:58:44.363Z,11.53
2019-02-28T21:01:15.948Z,9.07
2019-02-28T21:03:47.675Z,10.93
2019-02-28T21:06:19.365Z,9.73
2019-02-28T21:08:50.961Z,11.40
2019-02-28T21:11:22.662Z,10.90
2019-02-28T21:13:54.364Z,8.10
2019-02-28T21:16:26.044Z,8.70
2019-02-28T21:18:58.272Z,9.73
2019-02-28T21:21:31.108Z,9.37
2019-02-28T21:24:02.721Z,8.87
2019-02-28T21:26:34.304Z,7.37
2019-02-28T21:29:05.897Z,10.57
2019-02-28T21:31:37.627Z,11.27
2019-02-28T21:34:09.365Z,12.63
2019-02-28T21:36:41.240Z,14.90
2019-02-28T21:39:13.162Z,11.43
2019-02-28T21:41:46.428Z,9.67
2019-02-28T21:44:18.229Z,13.50
2019-02-28T21:46:49.848Z,11.37
2019-02-28T21:49:21.425Z,11.40
2019-02-28T21:51:53.024Z,10.20
2019-02-28T21:54:24.671Z,10.43
2019-02-28T21:56:56.311Z,10.70
2019-02-28T21:59:29.535Z,8.57
2019-02-28T22:02:01.203Z,9.17
2019-02-28T22:04:32.849Z,10.20
2019-02-28T22:07:04.556Z,10.87
2019-02-28T22:09:36.172Z,7.40
2019-02-28T22:12:07.864Z,8.93
2019-02-28T22:14:39.453Z,9.37
2019-02-28T22:17:11.056Z,13.40
2019-02-28T22:19:42.665Z,10.73
2019-02-28T22:22:14.268Z,12.50
2019-02-28T22:24:45.848Z,10.67
2019-02-28T22:27:17.466Z,14.10
2019-02-28T22:29:49.021Z,8.60
2019-02-28T22:32:24.808Z,11.47
2019-02-28T22:35:04.520Z,12.80
2019-02-28T22:37:36.131Z,9.93
2019-02-28T22:40:08.032Z,10.40
2019-02-28T22:42:39.679Z,10.53
2019-02-28T22:45:11.375Z,10.80
2019-02-28T22:47:42.970Z,10.70
2019-02-28T22:50:14.544Z,11.60
2019-02-28T22:52:46.147Z,11.37
2019-02-28T22:55:17.714Z,7.50
2019-02-28T22:57:49.292Z,9.13
2019-02-28T23:00:46.924Z,9.90
2019-02-28T23:03:19.751Z,9.30
2019-02-28T23:05:51.311Z,9.97
2019-02-28T23:08:22.896Z,9.53
2019-02-28T23:10:54.501Z,7.93
2019-02-28T23:13:26.087Z,6.00
2019-02-28T23:15:57.739Z,6.90
2019-02-28T23:18:29.330Z,10.10
2019-02-28T23:21:00.883Z,11.33
2019-02-28T23:23:32.459Z,7.87
2019-02-28T23:26:16.900Z,7.73
2019-02-28T23:29:04.777Z,10.10
2019-02-28T23:32:32.596Z,5.67
2019-02-28T23:35:04.782Z,6.90
2019-02-28T23:37:36.382Z,5.07
2019-02-28T23:40:08.455Z,6.00
2019-02-28T23:42:40.075Z,8.77
2019-02-28T23:45:11.931Z,8.00
2019-02-28T23:47:43.529Z,7.80
2019-02-28T23:50:15.092Z,5.97
2019-02-28T23:52:46.661Z,7.73
2019-02-28T23:55:18.238Z,7.60
2019-02-28T23:57:49.791Z,10.00
